Irvington, Indiana
Current Conditions -  °F | °C
As of 11:55 AM on Tuesday 27 Jan 2015 (Local Time) from KMQJ Reporting Station
Broken Clouds Broken Clouds  
Wind Chill: 22°   Ceiling: 5000
Heat Index: 28°   Visibility: 10mi
Dew Point:   Wind: 6mph
Humidity: 37%   Direction: 60°ENE
Pressure: 30.1"   Gusts: NA
Location:  39.7828°N, 86.044°W
Report Text: KMQJ 271655Z AUTO 06005KT 10SM BKN050 M02/M15 A3010 RMK AO1
Loading
Personal Weather Stations






























Interactive Weather Map New forecast layout! Learn more

10-Day Weather Forecast

Advertisements
Track Severe Weather on mobile